<?xml version="1.0" encoding="UTF-8" standalone="no" ?>
<gpx xmlns="http://www.topografix.com/GPX/1/1" xmlns:xsi="http://www.w3.org/2001/XMLSchema-instance" xsi:schemaLocation="http://www.topografix.com/GPX/1/1 http://www.topografix.com/GPX/1/1/gpx.xsd" version="1.1" creator="VisuGPX - https://www.visugpx.com">
  <metadata>
    <name>Footing Rhône_4</name>
    <desc><![CDATA[Parcours de footing plutôt agréable.
]]></desc>
  </metadata>
  <trk>
    <name><![CDATA[Sequence 1]]></name>
    <trkseg>
      <trkpt lat="45.75411" lon="4.82862">
        <ele>168</ele>
        <time>2016-09-23T05:10:41Z</time>
      </trkpt>
      <trkpt lat="45.75389" lon="4.83029">
        <ele>179</ele>
        <time>2016-09-23T05:11:44Z</time>
      </trkpt>
      <trkpt lat="45.75403" lon="4.83001">
        <ele>185</ele>
        <time>2016-09-23T05:11:55Z</time>
      </trkpt>
      <trkpt lat="45.75413" lon="4.82998">
        <ele>182</ele>
        <time>2016-09-23T05:11:58Z</time>
      </trkpt>
      <trkpt lat="45.75431" lon="4.83008">
        <ele>189</ele>
        <time>2016-09-23T05:12:07Z</time>
      </trkpt>
      <trkpt lat="45.7544" lon="4.83007">
        <ele>176</ele>
        <time>2016-09-23T05:12:10Z</time>
      </trkpt>
      <trkpt lat="45.75452" lon="4.83006">
        <ele>162</ele>
        <time>2016-09-23T05:12:17Z</time>
      </trkpt>
      <trkpt lat="45.75435" lon="4.83029">
        <ele>163</ele>
        <time>2016-09-23T05:12:26Z</time>
      </trkpt>
      <trkpt lat="45.75432" lon="4.83051">
        <ele>145</ele>
        <time>2016-09-23T05:12:30Z</time>
      </trkpt>
      <trkpt lat="45.75417" lon="4.83103">
        <ele>138</ele>
        <time>2016-09-23T05:12:37Z</time>
      </trkpt>
      <trkpt lat="45.75415" lon="4.83109">
        <ele>138</ele>
        <time>2016-09-23T05:12:39Z</time>
      </trkpt>
      <trkpt lat="45.75416" lon="4.83119">
        <ele>138</ele>
        <time>2016-09-23T05:12:45Z</time>
      </trkpt>
      <trkpt lat="45.75409" lon="4.83128">
        <ele>137</ele>
        <time>2016-09-23T05:12:51Z</time>
      </trkpt>
      <trkpt lat="45.75386" lon="4.83215">
        <ele>139</ele>
        <time>2016-09-23T05:13:16Z</time>
      </trkpt>
      <trkpt lat="45.75384" lon="4.83216">
        <ele>139</ele>
        <time>2016-09-23T05:13:21Z</time>
      </trkpt>
      <trkpt lat="45.75368" lon="4.83237">
        <ele>139</ele>
        <time>2016-09-23T05:13:27Z</time>
      </trkpt>
      <trkpt lat="45.75352" lon="4.83247">
        <ele>140</ele>
        <time>2016-09-23T05:13:38Z</time>
      </trkpt>
      <trkpt lat="45.75356" lon="4.8326">
        <ele>144</ele>
        <time>2016-09-23T05:13:44Z</time>
      </trkpt>
      <trkpt lat="45.75354" lon="4.83264">
        <ele>147</ele>
        <time>2016-09-23T05:13:46Z</time>
      </trkpt>
      <trkpt lat="45.75351" lon="4.83277">
        <ele>148</ele>
        <time>2016-09-23T05:13:51Z</time>
      </trkpt>
      <trkpt lat="45.75341" lon="4.833">
        <ele>147</ele>
        <time>2016-09-23T05:13:57Z</time>
      </trkpt>
      <trkpt lat="45.75334" lon="4.83322">
        <ele>148</ele>
        <time>2016-09-23T05:14:03Z</time>
      </trkpt>
      <trkpt lat="45.75325" lon="4.83355">
        <ele>150</ele>
        <time>2016-09-23T05:14:12Z</time>
      </trkpt>
      <trkpt lat="45.75329" lon="4.83371">
        <ele>154</ele>
        <time>2016-09-23T05:14:19Z</time>
      </trkpt>
      <trkpt lat="45.7532" lon="4.83386">
        <ele>160</ele>
        <time>2016-09-23T05:14:26Z</time>
      </trkpt>
      <trkpt lat="45.75319" lon="4.83386">
        <ele>162</ele>
        <time>2016-09-23T05:14:27Z</time>
      </trkpt>
      <trkpt lat="45.75316" lon="4.83386">
        <ele>166</ele>
        <time>2016-09-23T05:14:33Z</time>
      </trkpt>
      <trkpt lat="45.75315" lon="4.83389">
        <ele>172</ele>
        <time>2016-09-23T05:14:41Z</time>
      </trkpt>
      <trkpt lat="45.75313" lon="4.83391">
        <ele>176</ele>
        <time>2016-09-23T05:14:48Z</time>
      </trkpt>
      <trkpt lat="45.75313" lon="4.83392">
        <ele>176</ele>
        <time>2016-09-23T05:14:52Z</time>
      </trkpt>
      <trkpt lat="45.75313" lon="4.83391">
        <ele>175</ele>
        <time>2016-09-23T05:14:57Z</time>
      </trkpt>
      <trkpt lat="45.75313" lon="4.83391">
        <ele>175</ele>
        <time>2016-09-23T05:15:03Z</time>
      </trkpt>
      <trkpt lat="45.75313" lon="4.83391">
        <ele>175</ele>
        <time>2016-09-23T05:15:09Z</time>
      </trkpt>
      <trkpt lat="45.75313" lon="4.83392">
        <ele>174</ele>
        <time>2016-09-23T05:15:20Z</time>
      </trkpt>
      <trkpt lat="45.75312" lon="4.83394">
        <ele>173</ele>
        <time>2016-09-23T05:15:21Z</time>
      </trkpt>
      <trkpt lat="45.7531" lon="4.83403">
        <ele>171</ele>
        <time>2016-09-23T05:15:27Z</time>
      </trkpt>
      <trkpt lat="45.75303" lon="4.83419">
        <ele>169</ele>
        <time>2016-09-23T05:15:36Z</time>
      </trkpt>
      <trkpt lat="45.75292" lon="4.83424">
        <ele>167</ele>
        <time>2016-09-23T05:15:41Z</time>
      </trkpt>
      <trkpt lat="45.75288" lon="4.83433">
        <ele>165</ele>
        <time>2016-09-23T05:15:45Z</time>
      </trkpt>
      <trkpt lat="45.75276" lon="4.83461">
        <ele>167</ele>
        <time>2016-09-23T05:15:54Z</time>
      </trkpt>
      <trkpt lat="45.75269" lon="4.8348">
        <ele>166</ele>
        <time>2016-09-23T05:16:00Z</time>
      </trkpt>
      <trkpt lat="45.75265" lon="4.83487">
        <ele>167</ele>
        <time>2016-09-23T05:16:03Z</time>
      </trkpt>
      <trkpt lat="45.75253" lon="4.83518">
        <ele>166</ele>
        <time>2016-09-23T05:16:14Z</time>
      </trkpt>
      <trkpt lat="45.75251" lon="4.83522">
        <ele>165</ele>
        <time>2016-09-23T05:16:15Z</time>
      </trkpt>
      <trkpt lat="45.75245" lon="4.83541">
        <ele>164</ele>
        <time>2016-09-23T05:16:21Z</time>
      </trkpt>
      <trkpt lat="45.75234" lon="4.83571">
        <ele>169</ele>
        <time>2016-09-23T05:16:31Z</time>
      </trkpt>
      <trkpt lat="45.7523" lon="4.83581">
        <ele>167</ele>
        <time>2016-09-23T05:16:34Z</time>
      </trkpt>
      <trkpt lat="45.75223" lon="4.83599">
        <ele>169</ele>
        <time>2016-09-23T05:16:39Z</time>
      </trkpt>
      <trkpt lat="45.75218" lon="4.8362">
        <ele>170</ele>
        <time>2016-09-23T05:16:45Z</time>
      </trkpt>
      <trkpt lat="45.7521" lon="4.83639">
        <ele>172</ele>
        <time>2016-09-23T05:16:52Z</time>
      </trkpt>
      <trkpt lat="45.75207" lon="4.83655">
        <ele>174</ele>
        <time>2016-09-23T05:16:57Z</time>
      </trkpt>
      <trkpt lat="45.752" lon="4.83673">
        <ele>173</ele>
        <time>2016-09-23T05:17:03Z</time>
      </trkpt>
      <trkpt lat="45.75182" lon="4.83669">
        <ele>173</ele>
        <time>2016-09-23T05:17:09Z</time>
      </trkpt>
      <trkpt lat="45.75158" lon="4.83665">
        <ele>171</ele>
        <time>2016-09-23T05:17:16Z</time>
      </trkpt>
      <trkpt lat="45.75142" lon="4.83657">
        <ele>175</ele>
        <time>2016-09-23T05:17:24Z</time>
      </trkpt>
      <trkpt lat="45.75136" lon="4.83649">
        <ele>178</ele>
        <time>2016-09-23T05:17:27Z</time>
      </trkpt>
      <trkpt lat="45.75123" lon="4.83632">
        <ele>183</ele>
        <time>2016-09-23T05:17:33Z</time>
      </trkpt>
      <trkpt lat="45.75098" lon="4.83611">
        <ele>185</ele>
        <time>2016-09-23T05:17:44Z</time>
      </trkpt>
      <trkpt lat="45.75094" lon="4.83602">
        <ele>186</ele>
        <time>2016-09-23T05:17:48Z</time>
      </trkpt>
      <trkpt lat="45.75089" lon="4.83594">
        <ele>187</ele>
        <time>2016-09-23T05:17:52Z</time>
      </trkpt>
      <trkpt lat="45.75072" lon="4.83577">
        <ele>190</ele>
        <time>2016-09-23T05:18:00Z</time>
      </trkpt>
      <trkpt lat="45.75065" lon="4.83574">
        <ele>192</ele>
        <time>2016-09-23T05:18:03Z</time>
      </trkpt>
      <trkpt lat="45.75051" lon="4.83565">
        <ele>189</ele>
        <time>2016-09-23T05:18:09Z</time>
      </trkpt>
      <trkpt lat="45.7504" lon="4.83533">
        <ele>179</ele>
        <time>2016-09-23T05:18:19Z</time>
      </trkpt>
      <trkpt lat="45.75036" lon="4.83525">
        <ele>183</ele>
        <time>2016-09-23T05:18:22Z</time>
      </trkpt>
      <trkpt lat="45.75023" lon="4.83514">
        <ele>178</ele>
        <time>2016-09-23T05:18:27Z</time>
      </trkpt>
      <trkpt lat="45.75" lon="4.83496">
        <ele>174</ele>
        <time>2016-09-23T05:18:37Z</time>
      </trkpt>
      <trkpt lat="45.74996" lon="4.83492">
        <ele>174</ele>
        <time>2016-09-23T05:18:39Z</time>
      </trkpt>
      <trkpt lat="45.74983" lon="4.83482">
        <ele>175</ele>
        <time>2016-09-23T05:18:45Z</time>
      </trkpt>
      <trkpt lat="45.74957" lon="4.83465">
        <ele>174</ele>
        <time>2016-09-23T05:18:56Z</time>
      </trkpt>
      <trkpt lat="45.7495" lon="4.83458">
        <ele>176</ele>
        <time>2016-09-23T05:19:00Z</time>
      </trkpt>
      <trkpt lat="45.74945" lon="4.83453">
        <ele>172</ele>
        <time>2016-09-23T05:19:03Z</time>
      </trkpt>
      <trkpt lat="45.74926" lon="4.83437">
        <ele>169</ele>
        <time>2016-09-23T05:19:12Z</time>
      </trkpt>
      <trkpt lat="45.74917" lon="4.83433">
        <ele>170</ele>
        <time>2016-09-23T05:19:16Z</time>
      </trkpt>
      <trkpt lat="45.74912" lon="4.83424">
        <ele>173</ele>
        <time>2016-09-23T05:19:21Z</time>
      </trkpt>
      <trkpt lat="45.74897" lon="4.83402">
        <ele>182</ele>
        <time>2016-09-23T05:19:32Z</time>
      </trkpt>
      <trkpt lat="45.74895" lon="4.83401">
        <ele>180</ele>
        <time>2016-09-23T05:19:33Z</time>
      </trkpt>
      <trkpt lat="45.74879" lon="4.83392">
        <ele>177</ele>
        <time>2016-09-23T05:19:40Z</time>
      </trkpt>
      <trkpt lat="45.74872" lon="4.83384">
        <ele>180</ele>
        <time>2016-09-23T05:19:45Z</time>
      </trkpt>
      <trkpt lat="45.7485" lon="4.83375">
        <ele>188</ele>
        <time>2016-09-23T05:19:54Z</time>
      </trkpt>
      <trkpt lat="45.7484" lon="4.83369">
        <ele>189</ele>
        <time>2016-09-23T05:19:58Z</time>
      </trkpt>
      <trkpt lat="45.74835" lon="4.83357">
        <ele>190</ele>
        <time>2016-09-23T05:20:03Z</time>
      </trkpt>
      <trkpt lat="45.74827" lon="4.83347">
        <ele>194</ele>
        <time>2016-09-23T05:20:09Z</time>
      </trkpt>
      <trkpt lat="45.74812" lon="4.83341">
        <ele>191</ele>
        <time>2016-09-23T05:20:15Z</time>
      </trkpt>
      <trkpt lat="45.74806" lon="4.83326">
        <ele>192</ele>
        <time>2016-09-23T05:20:21Z</time>
      </trkpt>
      <trkpt lat="45.74777" lon="4.83322">
        <ele>187</ele>
        <time>2016-09-23T05:20:32Z</time>
      </trkpt>
      <trkpt lat="45.74769" lon="4.83316">
        <ele>188</ele>
        <time>2016-09-23T05:20:35Z</time>
      </trkpt>
      <trkpt lat="45.74765" lon="4.83303">
        <ele>190</ele>
        <time>2016-09-23T05:20:40Z</time>
      </trkpt>
      <trkpt lat="45.74755" lon="4.83292">
        <ele>188</ele>
        <time>2016-09-23T05:20:46Z</time>
      </trkpt>
      <trkpt lat="45.74733" lon="4.83279">
        <ele>186</ele>
        <time>2016-09-23T05:20:54Z</time>
      </trkpt>
      <trkpt lat="45.74726" lon="4.83274">
        <ele>188</ele>
        <time>2016-09-23T05:20:57Z</time>
      </trkpt>
      <trkpt lat="45.74715" lon="4.8326">
        <ele>186</ele>
        <time>2016-09-23T05:21:03Z</time>
      </trkpt>
      <trkpt lat="45.74701" lon="4.8325">
        <ele>184</ele>
        <time>2016-09-23T05:21:09Z</time>
      </trkpt>
      <trkpt lat="45.74691" lon="4.83238">
        <ele>186</ele>
        <time>2016-09-23T05:21:15Z</time>
      </trkpt>
      <trkpt lat="45.74681" lon="4.83226">
        <ele>186</ele>
        <time>2016-09-23T05:21:22Z</time>
      </trkpt>
      <trkpt lat="45.7466" lon="4.83223">
        <ele>181</ele>
        <time>2016-09-23T05:21:29Z</time>
      </trkpt>
      <trkpt lat="45.74638" lon="4.83202">
        <ele>182</ele>
        <time>2016-09-23T05:21:37Z</time>
      </trkpt>
      <trkpt lat="45.74631" lon="4.83196">
        <ele>180</ele>
        <time>2016-09-23T05:21:40Z</time>
      </trkpt>
      <trkpt lat="45.74624" lon="4.83185">
        <ele>178</ele>
        <time>2016-09-23T05:21:45Z</time>
      </trkpt>
      <trkpt lat="45.74622" lon="4.83176">
        <ele>178</ele>
        <time>2016-09-23T05:21:51Z</time>
      </trkpt>
      <trkpt lat="45.74616" lon="4.83181">
        <ele>182</ele>
        <time>2016-09-23T05:21:57Z</time>
      </trkpt>
      <trkpt lat="45.74598" lon="4.83164">
        <ele>194</ele>
        <time>2016-09-23T05:22:06Z</time>
      </trkpt>
      <trkpt lat="45.74592" lon="4.83157">
        <ele>193</ele>
        <time>2016-09-23T05:22:09Z</time>
      </trkpt>
      <trkpt lat="45.7458" lon="4.83144">
        <ele>201</ele>
        <time>2016-09-23T05:22:16Z</time>
      </trkpt>
      <trkpt lat="45.74573" lon="4.83131">
        <ele>207</ele>
        <time>2016-09-23T05:22:21Z</time>
      </trkpt>
      <trkpt lat="45.74547" lon="4.83111">
        <ele>202</ele>
        <time>2016-09-23T05:22:32Z</time>
      </trkpt>
      <trkpt lat="45.74544" lon="4.83109">
        <ele>203</ele>
        <time>2016-09-23T05:22:33Z</time>
      </trkpt>
      <trkpt lat="45.74521" lon="4.83082">
        <ele>207</ele>
        <time>2016-09-23T05:22:44Z</time>
      </trkpt>
      <trkpt lat="45.74519" lon="4.83079">
        <ele>208</ele>
        <time>2016-09-23T05:22:45Z</time>
      </trkpt>
      <trkpt lat="45.74511" lon="4.83062">
        <ele>207</ele>
        <time>2016-09-23T05:22:52Z</time>
      </trkpt>
      <trkpt lat="45.745" lon="4.83049">
        <ele>201</ele>
        <time>2016-09-23T05:22:58Z</time>
      </trkpt>
      <trkpt lat="45.74488" lon="4.83046">
        <ele>201</ele>
        <time>2016-09-23T05:23:03Z</time>
      </trkpt>
      <trkpt lat="45.74476" lon="4.83032">
        <ele>199</ele>
        <time>2016-09-23T05:23:09Z</time>
      </trkpt>
      <trkpt lat="45.74449" lon="4.83026">
        <ele>190</ele>
        <time>2016-09-23T05:23:18Z</time>
      </trkpt>
      <trkpt lat="45.74444" lon="4.83023">
        <ele>186</ele>
        <time>2016-09-23T05:23:21Z</time>
      </trkpt>
      <trkpt lat="45.74432" lon="4.83013">
        <ele>181</ele>
        <time>2016-09-23T05:23:27Z</time>
      </trkpt>
      <trkpt lat="45.74414" lon="4.8299">
        <ele>183</ele>
        <time>2016-09-23T05:23:36Z</time>
      </trkpt>
      <trkpt lat="45.74405" lon="4.82985">
        <ele>181</ele>
        <time>2016-09-23T05:23:39Z</time>
      </trkpt>
      <trkpt lat="45.74379" lon="4.82971">
        <ele>182</ele>
        <time>2016-09-23T05:23:48Z</time>
      </trkpt>
      <trkpt lat="45.74375" lon="4.82958">
        <ele>182</ele>
        <time>2016-09-23T05:23:52Z</time>
      </trkpt>
      <trkpt lat="45.74367" lon="4.82944">
        <ele>185</ele>
        <time>2016-09-23T05:23:58Z</time>
      </trkpt>
      <trkpt lat="45.74363" lon="4.82931">
        <ele>192</ele>
        <time>2016-09-23T05:24:06Z</time>
      </trkpt>
      <trkpt lat="45.7436" lon="4.82922">
        <ele>193</ele>
        <time>2016-09-23T05:24:09Z</time>
      </trkpt>
      <trkpt lat="45.74348" lon="4.82912">
        <ele>191</ele>
        <time>2016-09-23T05:24:15Z</time>
      </trkpt>
      <trkpt lat="45.74322" lon="4.82909">
        <ele>188</ele>
        <time>2016-09-23T05:24:21Z</time>
      </trkpt>
      <trkpt lat="45.743" lon="4.82896">
        <ele>189</ele>
        <time>2016-09-23T05:24:30Z</time>
      </trkpt>
      <trkpt lat="45.74295" lon="4.8289">
        <ele>183</ele>
        <time>2016-09-23T05:24:33Z</time>
      </trkpt>
      <trkpt lat="45.74277" lon="4.82876">
        <ele>178</ele>
        <time>2016-09-23T05:24:43Z</time>
      </trkpt>
      <trkpt lat="45.74273" lon="4.82873">
        <ele>175</ele>
        <time>2016-09-23T05:24:45Z</time>
      </trkpt>
      <trkpt lat="45.7426" lon="4.82868">
        <ele>174</ele>
        <time>2016-09-23T05:24:51Z</time>
      </trkpt>
      <trkpt lat="45.74249" lon="4.82855">
        <ele>170</ele>
        <time>2016-09-23T05:24:57Z</time>
      </trkpt>
      <trkpt lat="45.7423" lon="4.82831">
        <ele>176</ele>
        <time>2016-09-23T05:25:08Z</time>
      </trkpt>
      <trkpt lat="45.74229" lon="4.82828">
        <ele>177</ele>
        <time>2016-09-23T05:25:09Z</time>
      </trkpt>
      <trkpt lat="45.74219" lon="4.82814">
        <ele>180</ele>
        <time>2016-09-23T05:25:15Z</time>
      </trkpt>
      <trkpt lat="45.74201" lon="4.82808">
        <ele>183</ele>
        <time>2016-09-23T05:25:21Z</time>
      </trkpt>
      <trkpt lat="45.74191" lon="4.82786">
        <ele>183</ele>
        <time>2016-09-23T05:25:29Z</time>
      </trkpt>
      <trkpt lat="45.74177" lon="4.82775">
        <ele>185</ele>
        <time>2016-09-23T05:25:35Z</time>
      </trkpt>
      <trkpt lat="45.74162" lon="4.8277">
        <ele>182</ele>
        <time>2016-09-23T05:25:41Z</time>
      </trkpt>
      <trkpt lat="45.74153" lon="4.82762">
        <ele>184</ele>
        <time>2016-09-23T05:25:45Z</time>
      </trkpt>
      <trkpt lat="45.74143" lon="4.82752">
        <ele>176</ele>
        <time>2016-09-23T05:25:51Z</time>
      </trkpt>
      <trkpt lat="45.74131" lon="4.82748">
        <ele>172</ele>
        <time>2016-09-23T05:25:58Z</time>
      </trkpt>
      <trkpt lat="45.74119" lon="4.82741">
        <ele>169</ele>
        <time>2016-09-23T05:26:03Z</time>
      </trkpt>
      <trkpt lat="45.74099" lon="4.82725">
        <ele>173</ele>
        <time>2016-09-23T05:26:12Z</time>
      </trkpt>
      <trkpt lat="45.74093" lon="4.82716">
        <ele>177</ele>
        <time>2016-09-23T05:26:16Z</time>
      </trkpt>
      <trkpt lat="45.74083" lon="4.82708">
        <ele>177</ele>
        <time>2016-09-23T05:26:22Z</time>
      </trkpt>
      <trkpt lat="45.74072" lon="4.82699">
        <ele>181</ele>
        <time>2016-09-23T05:26:27Z</time>
      </trkpt>
      <trkpt lat="45.7406" lon="4.82685">
        <ele>180</ele>
        <time>2016-09-23T05:26:33Z</time>
      </trkpt>
      <trkpt lat="45.74055" lon="4.82665">
        <ele>184</ele>
        <time>2016-09-23T05:26:40Z</time>
      </trkpt>
      <trkpt lat="45.74048" lon="4.82655">
        <ele>185</ele>
        <time>2016-09-23T05:26:47Z</time>
      </trkpt>
      <trkpt lat="45.74038" lon="4.82655">
        <ele>184</ele>
        <time>2016-09-23T05:26:51Z</time>
      </trkpt>
      <trkpt lat="45.74002" lon="4.82645">
        <ele>183</ele>
        <time>2016-09-23T05:27:02Z</time>
      </trkpt>
      <trkpt lat="45.73998" lon="4.82643">
        <ele>184</ele>
        <time>2016-09-23T05:27:03Z</time>
      </trkpt>
      <trkpt lat="45.73983" lon="4.82624">
        <ele>184</ele>
        <time>2016-09-23T05:27:10Z</time>
      </trkpt>
      <trkpt lat="45.73977" lon="4.82619">
        <ele>183</ele>
        <time>2016-09-23T05:27:15Z</time>
      </trkpt>
      <trkpt lat="45.7397" lon="4.82604">
        <ele>186</ele>
        <time>2016-09-23T05:27:22Z</time>
      </trkpt>
      <trkpt lat="45.73954" lon="4.82596">
        <ele>184</ele>
        <time>2016-09-23T05:27:29Z</time>
      </trkpt>
      <trkpt lat="45.73945" lon="4.82591">
        <ele>185</ele>
        <time>2016-09-23T05:27:33Z</time>
      </trkpt>
      <trkpt lat="45.73919" lon="4.82578">
        <ele>190</ele>
        <time>2016-09-23T05:27:42Z</time>
      </trkpt>
      <trkpt lat="45.73909" lon="4.82566">
        <ele>196</ele>
        <time>2016-09-23T05:27:47Z</time>
      </trkpt>
      <trkpt lat="45.73897" lon="4.8256">
        <ele>195</ele>
        <time>2016-09-23T05:27:53Z</time>
      </trkpt>
      <trkpt lat="45.73891" lon="4.82536">
        <ele>202</ele>
        <time>2016-09-23T05:28:00Z</time>
      </trkpt>
      <trkpt lat="45.73877" lon="4.82519">
        <ele>209</ele>
        <time>2016-09-23T05:28:08Z</time>
      </trkpt>
      <trkpt lat="45.73876" lon="4.82516">
        <ele>211</ele>
        <time>2016-09-23T05:28:09Z</time>
      </trkpt>
      <trkpt lat="45.73867" lon="4.82509">
        <ele>204</ele>
        <time>2016-09-23T05:28:15Z</time>
      </trkpt>
      <trkpt lat="45.7385" lon="4.82493">
        <ele>205</ele>
        <time>2016-09-23T05:28:24Z</time>
      </trkpt>
      <trkpt lat="45.73842" lon="4.82489">
        <ele>197</ele>
        <time>2016-09-23T05:28:27Z</time>
      </trkpt>
      <trkpt lat="45.7382" lon="4.82484">
        <ele>198</ele>
        <time>2016-09-23T05:28:34Z</time>
      </trkpt>
      <trkpt lat="45.73793" lon="4.82473">
        <ele>196</ele>
        <time>2016-09-23T05:28:42Z</time>
      </trkpt>
      <trkpt lat="45.73791" lon="4.82465">
        <ele>192</ele>
        <time>2016-09-23T05:28:49Z</time>
      </trkpt>
      <trkpt lat="45.73778" lon="4.82461">
        <ele>190</ele>
        <time>2016-09-23T05:28:54Z</time>
      </trkpt>
      <trkpt lat="45.7376" lon="4.82452">
        <ele>189</ele>
        <time>2016-09-23T05:29:02Z</time>
      </trkpt>
      <trkpt lat="45.73758" lon="4.82449">
        <ele>189</ele>
        <time>2016-09-23T05:29:03Z</time>
      </trkpt>
      <trkpt lat="45.73745" lon="4.82434">
        <ele>191</ele>
        <time>2016-09-23T05:29:10Z</time>
      </trkpt>
      <trkpt lat="45.73723" lon="4.82418">
        <ele>187</ele>
        <time>2016-09-23T05:29:18Z</time>
      </trkpt>
      <trkpt lat="45.73712" lon="4.82392">
        <ele>189</ele>
        <time>2016-09-23T05:29:27Z</time>
      </trkpt>
      <trkpt lat="45.73711" lon="4.82384">
        <ele>192</ele>
        <time>2016-09-23T05:29:30Z</time>
      </trkpt>
      <trkpt lat="45.73707" lon="4.82379">
        <ele>192</ele>
        <time>2016-09-23T05:29:34Z</time>
      </trkpt>
      <trkpt lat="45.73692" lon="4.82373">
        <ele>191</ele>
        <time>2016-09-23T05:29:40Z</time>
      </trkpt>
      <trkpt lat="45.73674" lon="4.82366">
        <ele>190</ele>
        <time>2016-09-23T05:29:46Z</time>
      </trkpt>
      <trkpt lat="45.73665" lon="4.82354">
        <ele>187</ele>
        <time>2016-09-23T05:29:52Z</time>
      </trkpt>
      <trkpt lat="45.73655" lon="4.82348">
        <ele>185</ele>
        <time>2016-09-23T05:29:58Z</time>
      </trkpt>
      <trkpt lat="45.73632" lon="4.82335">
        <ele>185</ele>
        <time>2016-09-23T05:30:08Z</time>
      </trkpt>
      <trkpt lat="45.73627" lon="4.82331">
        <ele>184</ele>
        <time>2016-09-23T05:30:10Z</time>
      </trkpt>
      <trkpt lat="45.7361" lon="4.82324">
        <ele>186</ele>
        <time>2016-09-23T05:30:16Z</time>
      </trkpt>
      <trkpt lat="45.73597" lon="4.82313">
        <ele>187</ele>
        <time>2016-09-23T05:30:23Z</time>
      </trkpt>
      <trkpt lat="45.73585" lon="4.82303">
        <ele>183</ele>
        <time>2016-09-23T05:30:28Z</time>
      </trkpt>
      <trkpt lat="45.73567" lon="4.8229">
        <ele>190</ele>
        <time>2016-09-23T05:30:36Z</time>
      </trkpt>
      <trkpt lat="45.73561" lon="4.82286">
        <ele>193</ele>
        <time>2016-09-23T05:30:40Z</time>
      </trkpt>
      <trkpt lat="45.73554" lon="4.82275">
        <ele>188</ele>
        <time>2016-09-23T05:30:48Z</time>
      </trkpt>
      <trkpt lat="45.73545" lon="4.82267">
        <ele>191</ele>
        <time>2016-09-23T05:30:52Z</time>
      </trkpt>
      <trkpt lat="45.73525" lon="4.82261">
        <ele>188</ele>
        <time>2016-09-23T05:30:58Z</time>
      </trkpt>
      <trkpt lat="45.73497" lon="4.82244">
        <ele>181</ele>
        <time>2016-09-23T05:31:08Z</time>
      </trkpt>
      <trkpt lat="45.73493" lon="4.82239">
        <ele>179</ele>
        <time>2016-09-23T05:31:11Z</time>
      </trkpt>
      <trkpt lat="45.73484" lon="4.82227">
        <ele>181</ele>
        <time>2016-09-23T05:31:16Z</time>
      </trkpt>
      <trkpt lat="45.73467" lon="4.82207">
        <ele>178</ele>
        <time>2016-09-23T05:31:24Z</time>
      </trkpt>
      <trkpt lat="45.73455" lon="4.82204">
        <ele>178</ele>
        <time>2016-09-23T05:31:28Z</time>
      </trkpt>
      <trkpt lat="45.73431" lon="4.82205">
        <ele>179</ele>
        <time>2016-09-23T05:31:39Z</time>
      </trkpt>
      <trkpt lat="45.73429" lon="4.82204">
        <ele>178</ele>
        <time>2016-09-23T05:31:40Z</time>
      </trkpt>
      <trkpt lat="45.73417" lon="4.82199">
        <ele>179</ele>
        <time>2016-09-23T05:31:46Z</time>
      </trkpt>
      <trkpt lat="45.73399" lon="4.82199">
        <ele>184</ele>
        <time>2016-09-23T05:31:54Z</time>
      </trkpt>
      <trkpt lat="45.73377" lon="4.82206">
        <ele>189</ele>
        <time>2016-09-23T05:32:03Z</time>
      </trkpt>
      <trkpt lat="45.73368" lon="4.82206">
        <ele>188</ele>
        <time>2016-09-23T05:32:06Z</time>
      </trkpt>
      <trkpt lat="45.73353" lon="4.82198">
        <ele>182</ele>
        <time>2016-09-23T05:32:14Z</time>
      </trkpt>
      <trkpt lat="45.73351" lon="4.82196">
        <ele>185</ele>
        <time>2016-09-23T05:32:16Z</time>
      </trkpt>
      <trkpt lat="45.73337" lon="4.82193">
        <ele>184</ele>
        <time>2016-09-23T05:32:22Z</time>
      </trkpt>
      <trkpt lat="45.73318" lon="4.82196">
        <ele>179</ele>
        <time>2016-09-23T05:32:28Z</time>
      </trkpt>
      <trkpt lat="45.73267" lon="4.82188">
        <ele>183</ele>
        <time>2016-09-23T05:32:44Z</time>
      </trkpt>
      <trkpt lat="45.73248" lon="4.82187">
        <ele>182</ele>
        <time>2016-09-23T05:32:49Z</time>
      </trkpt>
      <trkpt lat="45.7323" lon="4.8218">
        <ele>184</ele>
        <time>2016-09-23T05:33:00Z</time>
      </trkpt>
      <trkpt lat="45.73223" lon="4.8218">
        <ele>187</ele>
        <time>2016-09-23T05:33:02Z</time>
      </trkpt>
      <trkpt lat="45.73202" lon="4.8216">
        <ele>187</ele>
        <time>2016-09-23T05:33:12Z</time>
      </trkpt>
      <trkpt lat="45.73199" lon="4.82153">
        <ele>187</ele>
        <time>2016-09-23T05:33:17Z</time>
      </trkpt>
      <trkpt lat="45.73197" lon="4.8215">
        <ele>187</ele>
        <time>2016-09-23T05:33:19Z</time>
      </trkpt>
      <trkpt lat="45.7318" lon="4.82138">
        <ele>188</ele>
        <time>2016-09-23T05:33:29Z</time>
      </trkpt>
      <trkpt lat="45.73166" lon="4.82135">
        <ele>187</ele>
        <time>2016-09-23T05:33:33Z</time>
      </trkpt>
      <trkpt lat="45.73156" lon="4.8213">
        <ele>189</ele>
        <time>2016-09-23T05:33:38Z</time>
      </trkpt>
      <trkpt lat="45.73144" lon="4.82127">
        <ele>191</ele>
        <time>2016-09-23T05:33:43Z</time>
      </trkpt>
      <trkpt lat="45.73125" lon="4.82123">
        <ele>189</ele>
        <time>2016-09-23T05:33:49Z</time>
      </trkpt>
      <trkpt lat="45.73108" lon="4.82126">
        <ele>188</ele>
        <time>2016-09-23T05:33:55Z</time>
      </trkpt>
      <trkpt lat="45.73095" lon="4.82129">
        <ele>184</ele>
        <time>2016-09-23T05:34:01Z</time>
      </trkpt>
      <trkpt lat="45.73087" lon="4.82133">
        <ele>186</ele>
        <time>2016-09-23T05:34:07Z</time>
      </trkpt>
      <trkpt lat="45.73073" lon="4.82143">
        <ele>186</ele>
        <time>2016-09-23T05:34:13Z</time>
      </trkpt>
      <trkpt lat="45.73048" lon="4.8216">
        <ele>186</ele>
        <time>2016-09-23T05:34:24Z</time>
      </trkpt>
      <trkpt lat="45.73046" lon="4.8216">
        <ele>185</ele>
        <time>2016-09-23T05:34:25Z</time>
      </trkpt>
      <trkpt lat="45.73022" lon="4.82175">
        <ele>189</ele>
        <time>2016-09-23T05:34:36Z</time>
      </trkpt>
      <trkpt lat="45.73019" lon="4.82177">
        <ele>188</ele>
        <time>2016-09-23T05:34:37Z</time>
      </trkpt>
      <trkpt lat="45.72989" lon="4.82177">
        <ele>177</ele>
        <time>2016-09-23T05:34:48Z</time>
      </trkpt>
      <trkpt lat="45.72984" lon="4.82176">
        <ele>177</ele>
        <time>2016-09-23T05:34:50Z</time>
      </trkpt>
      <trkpt lat="45.72971" lon="4.82167">
        <ele>178</ele>
        <time>2016-09-23T05:34:57Z</time>
      </trkpt>
      <trkpt lat="45.7296" lon="4.82162">
        <ele>178</ele>
        <time>2016-09-23T05:35:01Z</time>
      </trkpt>
      <trkpt lat="45.72939" lon="4.8215">
        <ele>183</ele>
        <time>2016-09-23T05:35:09Z</time>
      </trkpt>
      <trkpt lat="45.72932" lon="4.82141">
        <ele>181</ele>
        <time>2016-09-23T05:35:13Z</time>
      </trkpt>
      <trkpt lat="45.72926" lon="4.82118">
        <ele>185</ele>
        <time>2016-09-23T05:35:20Z</time>
      </trkpt>
      <trkpt lat="45.72918" lon="4.821">
        <ele>185</ele>
        <time>2016-09-23T05:35:27Z</time>
      </trkpt>
      <trkpt lat="45.72908" lon="4.82096">
        <ele>185</ele>
        <time>2016-09-23T05:35:31Z</time>
      </trkpt>
      <trkpt lat="45.72885" lon="4.82095">
        <ele>187</ele>
        <time>2016-09-23T05:35:41Z</time>
      </trkpt>
      <trkpt lat="45.72863" lon="4.82093">
        <ele>179</ele>
        <time>2016-09-23T05:35:48Z</time>
      </trkpt>
      <trkpt lat="45.7286" lon="4.82094">
        <ele>181</ele>
        <time>2016-09-23T05:35:49Z</time>
      </trkpt>
      <trkpt lat="45.72844" lon="4.82105">
        <ele>184</ele>
        <time>2016-09-23T05:35:57Z</time>
      </trkpt>
      <trkpt lat="45.72831" lon="4.82105">
        <ele>186</ele>
        <time>2016-09-23T05:36:03Z</time>
      </trkpt>
      <trkpt lat="45.72815" lon="4.82104">
        <ele>184</ele>
        <time>2016-09-23T05:36:09Z</time>
      </trkpt>
      <trkpt lat="45.72806" lon="4.821">
        <ele>189</ele>
        <time>2016-09-23T05:36:13Z</time>
      </trkpt>
      <trkpt lat="45.72783" lon="4.82089">
        <ele>187</ele>
        <time>2016-09-23T05:36:22Z</time>
      </trkpt>
      <trkpt lat="45.72767" lon="4.82093">
        <ele>183</ele>
        <time>2016-09-23T05:36:29Z</time>
      </trkpt>
      <trkpt lat="45.72765" lon="4.82093">
        <ele>181</ele>
        <time>2016-09-23T05:36:31Z</time>
      </trkpt>
      <trkpt lat="45.72753" lon="4.82093">
        <ele>182</ele>
        <time>2016-09-23T05:36:37Z</time>
      </trkpt>
      <trkpt lat="45.72728" lon="4.82099">
        <ele>187</ele>
        <time>2016-09-23T05:36:46Z</time>
      </trkpt>
      <trkpt lat="45.72712" lon="4.82093">
        <ele>188</ele>
        <time>2016-09-23T05:36:51Z</time>
      </trkpt>
      <trkpt lat="45.72696" lon="4.82092">
        <ele>190</ele>
        <time>2016-09-23T05:36:58Z</time>
      </trkpt>
      <trkpt lat="45.72688" lon="4.82088">
        <ele>186</ele>
        <time>2016-09-23T05:37:01Z</time>
      </trkpt>
      <trkpt lat="45.72676" lon="4.82082">
        <ele>179</ele>
        <time>2016-09-23T05:37:08Z</time>
      </trkpt>
      <trkpt lat="45.72658" lon="4.82081">
        <ele>179</ele>
        <time>2016-09-23T05:37:14Z</time>
      </trkpt>
      <trkpt lat="45.72646" lon="4.82082">
        <ele>181</ele>
        <time>2016-09-23T05:37:19Z</time>
      </trkpt>
      <trkpt lat="45.7263" lon="4.82084">
        <ele>179</ele>
        <time>2016-09-23T05:37:28Z</time>
      </trkpt>
      <trkpt lat="45.72612" lon="4.82091">
        <ele>179</ele>
        <time>2016-09-23T05:37:33Z</time>
      </trkpt>
      <trkpt lat="45.72598" lon="4.82094">
        <ele>177</ele>
        <time>2016-09-23T05:37:37Z</time>
      </trkpt>
      <trkpt lat="45.72591" lon="4.82088">
        <ele>177</ele>
        <time>2016-09-23T05:37:43Z</time>
      </trkpt>
      <trkpt lat="45.72579" lon="4.82085">
        <ele>173</ele>
        <time>2016-09-23T05:37:49Z</time>
      </trkpt>
      <trkpt lat="45.72566" lon="4.82082">
        <ele>166</ele>
        <time>2016-09-23T05:37:55Z</time>
      </trkpt>
      <trkpt lat="45.72546" lon="4.82094">
        <ele>178</ele>
        <time>2016-09-23T05:38:06Z</time>
      </trkpt>
      <trkpt lat="45.72539" lon="4.82099">
        <ele>176</ele>
        <time>2016-09-23T05:38:10Z</time>
      </trkpt>
      <trkpt lat="45.72523" lon="4.82103">
        <ele>175</ele>
        <time>2016-09-23T05:38:17Z</time>
      </trkpt>
      <trkpt lat="45.72512" lon="4.82105">
        <ele>171</ele>
        <time>2016-09-23T05:38:21Z</time>
      </trkpt>
      <trkpt lat="45.72513" lon="4.8212">
        <ele>173</ele>
        <time>2016-09-23T05:38:25Z</time>
      </trkpt>
      <trkpt lat="45.7253" lon="4.82126">
        <ele>174</ele>
        <time>2016-09-23T05:38:31Z</time>
      </trkpt>
      <trkpt lat="45.72546" lon="4.82113">
        <ele>178</ele>
        <time>2016-09-23T05:38:37Z</time>
      </trkpt>
      <trkpt lat="45.72567" lon="4.82096">
        <ele>178</ele>
        <time>2016-09-23T05:38:47Z</time>
      </trkpt>
      <trkpt lat="45.72574" lon="4.82096">
        <ele>177</ele>
        <time>2016-09-23T05:38:50Z</time>
      </trkpt>
      <trkpt lat="45.72589" lon="4.82095">
        <ele>174</ele>
        <time>2016-09-23T05:38:56Z</time>
      </trkpt>
      <trkpt lat="45.72614" lon="4.82091">
        <ele>180</ele>
        <time>2016-09-23T05:39:04Z</time>
      </trkpt>
      <trkpt lat="45.72633" lon="4.82089">
        <ele>176</ele>
        <time>2016-09-23T05:39:12Z</time>
      </trkpt>
      <trkpt lat="45.72636" lon="4.82089">
        <ele>176</ele>
        <time>2016-09-23T05:39:13Z</time>
      </trkpt>
      <trkpt lat="45.72647" lon="4.82088">
        <ele>171</ele>
        <time>2016-09-23T05:39:19Z</time>
      </trkpt>
      <trkpt lat="45.72659" lon="4.82085">
        <ele>173</ele>
        <time>2016-09-23T05:39:25Z</time>
      </trkpt>
      <trkpt lat="45.72673" lon="4.82085">
        <ele>173</ele>
        <time>2016-09-23T05:39:31Z</time>
      </trkpt>
      <trkpt lat="45.7269" lon="4.82085">
        <ele>172</ele>
        <time>2016-09-23T05:39:37Z</time>
      </trkpt>
      <trkpt lat="45.72719" lon="4.82084">
        <ele>172</ele>
        <time>2016-09-23T05:39:48Z</time>
      </trkpt>
      <trkpt lat="45.72725" lon="4.82084">
        <ele>174</ele>
        <time>2016-09-23T05:39:51Z</time>
      </trkpt>
      <trkpt lat="45.72729" lon="4.82084">
        <ele>166</ele>
        <time>2016-09-23T05:39:55Z</time>
      </trkpt>
      <trkpt lat="45.72746" lon="4.82093">
        <ele>165</ele>
        <time>2016-09-23T05:40:03Z</time>
      </trkpt>
      <trkpt lat="45.72758" lon="4.82091">
        <ele>166</ele>
        <time>2016-09-23T05:40:07Z</time>
      </trkpt>
      <trkpt lat="45.72779" lon="4.82087">
        <ele>167</ele>
        <time>2016-09-23T05:40:14Z</time>
      </trkpt>
      <trkpt lat="45.72787" lon="4.82084">
        <ele>172</ele>
        <time>2016-09-23T05:40:19Z</time>
      </trkpt>
      <trkpt lat="45.72808" lon="4.82082">
        <ele>172</ele>
        <time>2016-09-23T05:40:26Z</time>
      </trkpt>
      <trkpt lat="45.72817" lon="4.82085">
        <ele>170</ele>
        <time>2016-09-23T05:40:31Z</time>
      </trkpt>
      <trkpt lat="45.72829" lon="4.82092">
        <ele>174</ele>
        <time>2016-09-23T05:40:37Z</time>
      </trkpt>
      <trkpt lat="45.72843" lon="4.82098">
        <ele>171</ele>
        <time>2016-09-23T05:40:43Z</time>
      </trkpt>
      <trkpt lat="45.72874" lon="4.82099">
        <ele>183</ele>
        <time>2016-09-23T05:40:54Z</time>
      </trkpt>
      <trkpt lat="45.72884" lon="4.82096">
        <ele>183</ele>
        <time>2016-09-23T05:40:59Z</time>
      </trkpt>
      <trkpt lat="45.72888" lon="4.82096">
        <ele>185</ele>
        <time>2016-09-23T05:41:01Z</time>
      </trkpt>
      <trkpt lat="45.72899" lon="4.82104">
        <ele>178</ele>
        <time>2016-09-23T05:41:07Z</time>
      </trkpt>
      <trkpt lat="45.72917" lon="4.82104">
        <ele>182</ele>
        <time>2016-09-23T05:41:16Z</time>
      </trkpt>
      <trkpt lat="45.72938" lon="4.82116">
        <ele>184</ele>
        <time>2016-09-23T05:41:22Z</time>
      </trkpt>
      <trkpt lat="45.72944" lon="4.82126">
        <ele>184</ele>
        <time>2016-09-23T05:41:25Z</time>
      </trkpt>
      <trkpt lat="45.72949" lon="4.82143">
        <ele>181</ele>
        <time>2016-09-23T05:41:31Z</time>
      </trkpt>
      <trkpt lat="45.72962" lon="4.82158">
        <ele>177</ele>
        <time>2016-09-23T05:41:41Z</time>
      </trkpt>
      <trkpt lat="45.72966" lon="4.82163">
        <ele>179</ele>
        <time>2016-09-23T05:41:44Z</time>
      </trkpt>
      <trkpt lat="45.72978" lon="4.82168">
        <ele>180</ele>
        <time>2016-09-23T05:41:49Z</time>
      </trkpt>
      <trkpt lat="45.72992" lon="4.82175">
        <ele>183</ele>
        <time>2016-09-23T05:41:55Z</time>
      </trkpt>
      <trkpt lat="45.73009" lon="4.82173">
        <ele>182</ele>
        <time>2016-09-23T05:42:03Z</time>
      </trkpt>
      <trkpt lat="45.73019" lon="4.82168">
        <ele>183</ele>
        <time>2016-09-23T05:42:07Z</time>
      </trkpt>
      <trkpt lat="45.73045" lon="4.82157">
        <ele>186</ele>
        <time>2016-09-23T05:42:18Z</time>
      </trkpt>
      <trkpt lat="45.73047" lon="4.82155">
        <ele>187</ele>
        <time>2016-09-23T05:42:19Z</time>
      </trkpt>
      <trkpt lat="45.73075" lon="4.82142">
        <ele>183</ele>
        <time>2016-09-23T05:42:29Z</time>
      </trkpt>
      <trkpt lat="45.73083" lon="4.82138">
        <ele>183</ele>
        <time>2016-09-23T05:42:31Z</time>
      </trkpt>
      <trkpt lat="45.73101" lon="4.82121">
        <ele>186</ele>
        <time>2016-09-23T05:42:40Z</time>
      </trkpt>
      <trkpt lat="45.73107" lon="4.82119">
        <ele>185</ele>
        <time>2016-09-23T05:42:43Z</time>
      </trkpt>
      <trkpt lat="45.7313" lon="4.82121">
        <ele>179</ele>
        <time>2016-09-23T05:42:53Z</time>
      </trkpt>
      <trkpt lat="45.7315" lon="4.82117">
        <ele>183</ele>
        <time>2016-09-23T05:43:00Z</time>
      </trkpt>
      <trkpt lat="45.73151" lon="4.82117">
        <ele>184</ele>
        <time>2016-09-23T05:43:01Z</time>
      </trkpt>
      <trkpt lat="45.73161" lon="4.8212">
        <ele>181</ele>
        <time>2016-09-23T05:43:07Z</time>
      </trkpt>
      <trkpt lat="45.73176" lon="4.82127">
        <ele>169</ele>
        <time>2016-09-23T05:43:17Z</time>
      </trkpt>
      <trkpt lat="45.7318" lon="4.82127">
        <ele>168</ele>
        <time>2016-09-23T05:43:19Z</time>
      </trkpt>
      <trkpt lat="45.73202" lon="4.82135">
        <ele>170</ele>
        <time>2016-09-23T05:43:30Z</time>
      </trkpt>
      <trkpt lat="45.73206" lon="4.82137">
        <ele>166</ele>
        <time>2016-09-23T05:43:31Z</time>
      </trkpt>
      <trkpt lat="45.73222" lon="4.82144">
        <ele>171</ele>
        <time>2016-09-23T05:43:37Z</time>
      </trkpt>
      <trkpt lat="45.73247" lon="4.82158">
        <ele>172</ele>
        <time>2016-09-23T05:43:48Z</time>
      </trkpt>
      <trkpt lat="45.7325" lon="4.82159">
        <ele>172</ele>
        <time>2016-09-23T05:43:49Z</time>
      </trkpt>
      <trkpt lat="45.73275" lon="4.82173">
        <ele>170</ele>
        <time>2016-09-23T05:44:00Z</time>
      </trkpt>
      <trkpt lat="45.73277" lon="4.82174">
        <ele>171</ele>
        <time>2016-09-23T05:44:01Z</time>
      </trkpt>
      <trkpt lat="45.73289" lon="4.82182">
        <ele>174</ele>
        <time>2016-09-23T05:44:07Z</time>
      </trkpt>
      <trkpt lat="45.73335" lon="4.82182">
        <ele>173</ele>
        <time>2016-09-23T05:44:27Z</time>
      </trkpt>
      <trkpt lat="45.73339" lon="4.82183">
        <ele>175</ele>
        <time>2016-09-23T05:44:28Z</time>
      </trkpt>
      <trkpt lat="45.73365" lon="4.82189">
        <ele>174</ele>
        <time>2016-09-23T05:44:37Z</time>
      </trkpt>
      <trkpt lat="45.73373" lon="4.8219">
        <ele>176</ele>
        <time>2016-09-23T05:44:40Z</time>
      </trkpt>
      <trkpt lat="45.73401" lon="4.82192">
        <ele>175</ele>
        <time>2016-09-23T05:44:50Z</time>
      </trkpt>
      <trkpt lat="45.73409" lon="4.82194">
        <ele>176</ele>
        <time>2016-09-23T05:44:52Z</time>
      </trkpt>
      <trkpt lat="45.73432" lon="4.82197">
        <ele>171</ele>
        <time>2016-09-23T05:45:01Z</time>
      </trkpt>
      <trkpt lat="45.73436" lon="4.82198">
        <ele>169</ele>
        <time>2016-09-23T05:45:04Z</time>
      </trkpt>
      <trkpt lat="45.73457" lon="4.82208">
        <ele>169</ele>
        <time>2016-09-23T05:45:15Z</time>
      </trkpt>
      <trkpt lat="45.73473" lon="4.82213">
        <ele>172</ele>
        <time>2016-09-23T05:45:21Z</time>
      </trkpt>
      <trkpt lat="45.73476" lon="4.82214">
        <ele>172</ele>
        <time>2016-09-23T05:45:22Z</time>
      </trkpt>
      <trkpt lat="45.73494" lon="4.82219">
        <ele>171</ele>
        <time>2016-09-23T05:45:28Z</time>
      </trkpt>
      <trkpt lat="45.73505" lon="4.82228">
        <ele>165</ele>
        <time>2016-09-23T05:45:38Z</time>
      </trkpt>
      <trkpt lat="45.73506" lon="4.82231">
        <ele>165</ele>
        <time>2016-09-23T05:45:40Z</time>
      </trkpt>
      <trkpt lat="45.73516" lon="4.8224">
        <ele>167</ele>
        <time>2016-09-23T05:45:47Z</time>
      </trkpt>
      <trkpt lat="45.7354" lon="4.82261">
        <ele>165</ele>
        <time>2016-09-23T05:45:56Z</time>
      </trkpt>
      <trkpt lat="45.73544" lon="4.82266">
        <ele>168</ele>
        <time>2016-09-23T05:45:59Z</time>
      </trkpt>
      <trkpt lat="45.73558" lon="4.82281">
        <ele>168</ele>
        <time>2016-09-23T05:46:06Z</time>
      </trkpt>
      <trkpt lat="45.73575" lon="4.8229">
        <ele>169</ele>
        <time>2016-09-23T05:46:14Z</time>
      </trkpt>
      <trkpt lat="45.7358" lon="4.82293">
        <ele>169</ele>
        <time>2016-09-23T05:46:16Z</time>
      </trkpt>
      <trkpt lat="45.73601" lon="4.82311">
        <ele>168</ele>
        <time>2016-09-23T05:46:24Z</time>
      </trkpt>
      <trkpt lat="45.73613" lon="4.82321">
        <ele>169</ele>
        <time>2016-09-23T05:46:31Z</time>
      </trkpt>
      <trkpt lat="45.73619" lon="4.82329">
        <ele>174</ele>
        <time>2016-09-23T05:46:36Z</time>
      </trkpt>
      <trkpt lat="45.73625" lon="4.82337">
        <ele>175</ele>
        <time>2016-09-23T05:46:40Z</time>
      </trkpt>
      <trkpt lat="45.73637" lon="4.82346">
        <ele>178</ele>
        <time>2016-09-23T05:46:46Z</time>
      </trkpt>
      <trkpt lat="45.73654" lon="4.82348">
        <ele>176</ele>
        <time>2016-09-23T05:46:52Z</time>
      </trkpt>
      <trkpt lat="45.7367" lon="4.82356">
        <ele>175</ele>
        <time>2016-09-23T05:46:58Z</time>
      </trkpt>
      <trkpt lat="45.73702" lon="4.82373">
        <ele>180</ele>
        <time>2016-09-23T05:47:08Z</time>
      </trkpt>
      <trkpt lat="45.73713" lon="4.82376">
        <ele>182</ele>
        <time>2016-09-23T05:47:11Z</time>
      </trkpt>
      <trkpt lat="45.73724" lon="4.82385">
        <ele>178</ele>
        <time>2016-09-23T05:47:19Z</time>
      </trkpt>
      <trkpt lat="45.73732" lon="4.82392">
        <ele>179</ele>
        <time>2016-09-23T05:47:22Z</time>
      </trkpt>
      <trkpt lat="45.73745" lon="4.82403">
        <ele>179</ele>
        <time>2016-09-23T05:47:29Z</time>
      </trkpt>
      <trkpt lat="45.73753" lon="4.82412">
        <ele>181</ele>
        <time>2016-09-23T05:47:34Z</time>
      </trkpt>
      <trkpt lat="45.73761" lon="4.82422">
        <ele>179</ele>
        <time>2016-09-23T05:47:40Z</time>
      </trkpt>
      <trkpt lat="45.73772" lon="4.82435">
        <ele>175</ele>
        <time>2016-09-23T05:47:46Z</time>
      </trkpt>
      <trkpt lat="45.738" lon="4.82452">
        <ele>179</ele>
        <time>2016-09-23T05:47:54Z</time>
      </trkpt>
      <trkpt lat="45.7382" lon="4.82461">
        <ele>181</ele>
        <time>2016-09-23T05:47:59Z</time>
      </trkpt>
      <trkpt lat="45.7383" lon="4.82475">
        <ele>179</ele>
        <time>2016-09-23T05:48:04Z</time>
      </trkpt>
      <trkpt lat="45.73843" lon="4.82483">
        <ele>180</ele>
        <time>2016-09-23T05:48:12Z</time>
      </trkpt>
      <trkpt lat="45.73856" lon="4.82493">
        <ele>182</ele>
        <time>2016-09-23T05:48:20Z</time>
      </trkpt>
      <trkpt lat="45.73862" lon="4.82495">
        <ele>184</ele>
        <time>2016-09-23T05:48:22Z</time>
      </trkpt>
      <trkpt lat="45.73877" lon="4.82504">
        <ele>184</ele>
        <time>2016-09-23T05:48:29Z</time>
      </trkpt>
      <trkpt lat="45.7389" lon="4.82517">
        <ele>181</ele>
        <time>2016-09-23T05:48:35Z</time>
      </trkpt>
      <trkpt lat="45.73909" lon="4.82527">
        <ele>184</ele>
        <time>2016-09-23T05:48:40Z</time>
      </trkpt>
      <trkpt lat="45.73916" lon="4.82535">
        <ele>181</ele>
        <time>2016-09-23T05:48:46Z</time>
      </trkpt>
      <trkpt lat="45.73936" lon="4.82547">
        <ele>185</ele>
        <time>2016-09-23T05:48:56Z</time>
      </trkpt>
      <trkpt lat="45.73941" lon="4.82553">
        <ele>183</ele>
        <time>2016-09-23T05:48:58Z</time>
      </trkpt>
      <trkpt lat="45.7395" lon="4.82565">
        <ele>181</ele>
        <time>2016-09-23T05:49:04Z</time>
      </trkpt>
      <trkpt lat="45.7397" lon="4.82587">
        <ele>183</ele>
        <time>2016-09-23T05:49:15Z</time>
      </trkpt>
      <trkpt lat="45.73971" lon="4.82589">
        <ele>182</ele>
        <time>2016-09-23T05:49:16Z</time>
      </trkpt>
      <trkpt lat="45.73977" lon="4.82597">
        <ele>182</ele>
        <time>2016-09-23T05:49:22Z</time>
      </trkpt>
      <trkpt lat="45.73999" lon="4.82613">
        <ele>186</ele>
        <time>2016-09-23T05:49:31Z</time>
      </trkpt>
      <trkpt lat="45.74014" lon="4.8262">
        <ele>185</ele>
        <time>2016-09-23T05:49:34Z</time>
      </trkpt>
      <trkpt lat="45.74028" lon="4.82631">
        <ele>185</ele>
        <time>2016-09-23T05:49:40Z</time>
      </trkpt>
      <trkpt lat="45.7404" lon="4.82637">
        <ele>185</ele>
        <time>2016-09-23T05:49:46Z</time>
      </trkpt>
      <trkpt lat="45.74053" lon="4.82655">
        <ele>185</ele>
        <time>2016-09-23T05:49:54Z</time>
      </trkpt>
      <trkpt lat="45.74066" lon="4.82665">
        <ele>183</ele>
        <time>2016-09-23T05:50:00Z</time>
      </trkpt>
      <trkpt lat="45.74079" lon="4.82675">
        <ele>184</ele>
        <time>2016-09-23T05:50:05Z</time>
      </trkpt>
      <trkpt lat="45.74085" lon="4.82686">
        <ele>181</ele>
        <time>2016-09-23T05:50:11Z</time>
      </trkpt>
      <trkpt lat="45.74097" lon="4.82703">
        <ele>186</ele>
        <time>2016-09-23T05:50:18Z</time>
      </trkpt>
      <trkpt lat="45.74108" lon="4.82711">
        <ele>186</ele>
        <time>2016-09-23T05:50:22Z</time>
      </trkpt>
      <trkpt lat="45.74121" lon="4.82723">
        <ele>186</ele>
        <time>2016-09-23T05:50:28Z</time>
      </trkpt>
      <trkpt lat="45.74135" lon="4.82731">
        <ele>186</ele>
        <time>2016-09-23T05:50:34Z</time>
      </trkpt>
      <trkpt lat="45.74161" lon="4.82747">
        <ele>183</ele>
        <time>2016-09-23T05:50:42Z</time>
      </trkpt>
      <trkpt lat="45.74169" lon="4.82752">
        <ele>187</ele>
        <time>2016-09-23T05:50:46Z</time>
      </trkpt>
      <trkpt lat="45.74181" lon="4.82766">
        <ele>190</ele>
        <time>2016-09-23T05:50:55Z</time>
      </trkpt>
      <trkpt lat="45.74185" lon="4.82772">
        <ele>189</ele>
        <time>2016-09-23T05:50:58Z</time>
      </trkpt>
      <trkpt lat="45.74197" lon="4.82781">
        <ele>189</ele>
        <time>2016-09-23T05:51:04Z</time>
      </trkpt>
      <trkpt lat="45.74207" lon="4.82792">
        <ele>187</ele>
        <time>2016-09-23T05:51:10Z</time>
      </trkpt>
      <trkpt lat="45.74219" lon="4.82802">
        <ele>188</ele>
        <time>2016-09-23T05:51:16Z</time>
      </trkpt>
      <trkpt lat="45.74233" lon="4.82809">
        <ele>187</ele>
        <time>2016-09-23T05:51:22Z</time>
      </trkpt>
      <trkpt lat="45.74244" lon="4.82821">
        <ele>188</ele>
        <time>2016-09-23T05:51:28Z</time>
      </trkpt>
      <trkpt lat="45.74253" lon="4.8283">
        <ele>183</ele>
        <time>2016-09-23T05:51:34Z</time>
      </trkpt>
      <trkpt lat="45.74279" lon="4.82852">
        <ele>181</ele>
        <time>2016-09-23T05:51:45Z</time>
      </trkpt>
      <trkpt lat="45.74283" lon="4.82857">
        <ele>179</ele>
        <time>2016-09-23T05:51:47Z</time>
      </trkpt>
      <trkpt lat="45.74304" lon="4.82878">
        <ele>183</ele>
        <time>2016-09-23T05:51:57Z</time>
      </trkpt>
      <trkpt lat="45.74316" lon="4.82888">
        <ele>188</ele>
        <time>2016-09-23T05:52:02Z</time>
      </trkpt>
      <trkpt lat="45.7432" lon="4.82895">
        <ele>190</ele>
        <time>2016-09-23T05:52:05Z</time>
      </trkpt>
      <trkpt lat="45.74322" lon="4.82901">
        <ele>193</ele>
        <time>2016-09-23T05:52:10Z</time>
      </trkpt>
      <trkpt lat="45.74336" lon="4.82908">
        <ele>189</ele>
        <time>2016-09-23T05:52:18Z</time>
      </trkpt>
      <trkpt lat="45.74349" lon="4.82908">
        <ele>191</ele>
        <time>2016-09-23T05:52:22Z</time>
      </trkpt>
      <trkpt lat="45.7437" lon="4.82924">
        <ele>190</ele>
        <time>2016-09-23T05:52:31Z</time>
      </trkpt>
      <trkpt lat="45.7438" lon="4.82938">
        <ele>186</ele>
        <time>2016-09-23T05:52:37Z</time>
      </trkpt>
      <trkpt lat="45.74386" lon="4.82944">
        <ele>185</ele>
        <time>2016-09-23T05:52:40Z</time>
      </trkpt>
      <trkpt lat="45.74412" lon="4.82963">
        <ele>186</ele>
        <time>2016-09-23T05:52:48Z</time>
      </trkpt>
      <trkpt lat="45.7443" lon="4.82977">
        <ele>186</ele>
        <time>2016-09-23T05:52:55Z</time>
      </trkpt>
      <trkpt lat="45.74437" lon="4.82983">
        <ele>184</ele>
        <time>2016-09-23T05:52:58Z</time>
      </trkpt>
      <trkpt lat="45.74447" lon="4.82992">
        <ele>182</ele>
        <time>2016-09-23T05:53:04Z</time>
      </trkpt>
      <trkpt lat="45.74456" lon="4.83003">
        <ele>181</ele>
        <time>2016-09-23T05:53:10Z</time>
      </trkpt>
      <trkpt lat="45.74475" lon="4.83027">
        <ele>181</ele>
        <time>2016-09-23T05:53:20Z</time>
      </trkpt>
      <trkpt lat="45.74481" lon="4.83035">
        <ele>182</ele>
        <time>2016-09-23T05:53:22Z</time>
      </trkpt>
      <trkpt lat="45.74497" lon="4.83047">
        <ele>183</ele>
        <time>2016-09-23T05:53:28Z</time>
      </trkpt>
      <trkpt lat="45.74505" lon="4.83059">
        <ele>186</ele>
        <time>2016-09-23T05:53:34Z</time>
      </trkpt>
      <trkpt lat="45.74528" lon="4.83082">
        <ele>184</ele>
        <time>2016-09-23T05:53:45Z</time>
      </trkpt>
      <trkpt lat="45.74536" lon="4.83095">
        <ele>184</ele>
        <time>2016-09-23T05:53:50Z</time>
      </trkpt>
      <trkpt lat="45.74537" lon="4.83096">
        <ele>184</ele>
        <time>2016-09-23T05:53:52Z</time>
      </trkpt>
      <trkpt lat="45.74548" lon="4.83108">
        <ele>183</ele>
        <time>2016-09-23T05:53:59Z</time>
      </trkpt>
      <trkpt lat="45.74554" lon="4.83119">
        <ele>188</ele>
        <time>2016-09-23T05:54:05Z</time>
      </trkpt>
      <trkpt lat="45.74563" lon="4.8313">
        <ele>187</ele>
        <time>2016-09-23T05:54:10Z</time>
      </trkpt>
      <trkpt lat="45.74582" lon="4.83148">
        <ele>189</ele>
        <time>2016-09-23T05:54:20Z</time>
      </trkpt>
      <trkpt lat="45.74588" lon="4.83152">
        <ele>189</ele>
        <time>2016-09-23T05:54:22Z</time>
      </trkpt>
      <trkpt lat="45.74591" lon="4.83155">
        <ele>191</ele>
        <time>2016-09-23T05:54:30Z</time>
      </trkpt>
      <trkpt lat="45.74606" lon="4.83166">
        <ele>185</ele>
        <time>2016-09-23T05:54:41Z</time>
      </trkpt>
      <trkpt lat="45.74623" lon="4.83181">
        <ele>175</ele>
        <time>2016-09-23T05:54:45Z</time>
      </trkpt>
      <trkpt lat="45.74646" lon="4.832">
        <ele>185</ele>
        <time>2016-09-23T05:54:51Z</time>
      </trkpt>
      <trkpt lat="45.74655" lon="4.83207">
        <ele>184</ele>
        <time>2016-09-23T05:54:54Z</time>
      </trkpt>
      <trkpt lat="45.74668" lon="4.83219">
        <ele>185</ele>
        <time>2016-09-23T05:55:00Z</time>
      </trkpt>
      <trkpt lat="45.74685" lon="4.83235">
        <ele>188</ele>
        <time>2016-09-23T05:55:09Z</time>
      </trkpt>
      <trkpt lat="45.74693" lon="4.83238">
        <ele>186</ele>
        <time>2016-09-23T05:55:12Z</time>
      </trkpt>
      <trkpt lat="45.74707" lon="4.83246">
        <ele>184</ele>
        <time>2016-09-23T05:55:18Z</time>
      </trkpt>
      <trkpt lat="45.74734" lon="4.83263">
        <ele>184</ele>
        <time>2016-09-23T05:55:27Z</time>
      </trkpt>
      <trkpt lat="45.74743" lon="4.83268">
        <ele>187</ele>
        <time>2016-09-23T05:55:30Z</time>
      </trkpt>
      <trkpt lat="45.74755" lon="4.83278">
        <ele>184</ele>
        <time>2016-09-23T05:55:36Z</time>
      </trkpt>
      <trkpt lat="45.74779" lon="4.83294">
        <ele>184</ele>
        <time>2016-09-23T05:55:47Z</time>
      </trkpt>
      <trkpt lat="45.74797" lon="4.83303">
        <ele>188</ele>
        <time>2016-09-23T05:55:53Z</time>
      </trkpt>
      <trkpt lat="45.74799" lon="4.83306">
        <ele>190</ele>
        <time>2016-09-23T05:55:55Z</time>
      </trkpt>
      <trkpt lat="45.74812" lon="4.83316">
        <ele>188</ele>
        <time>2016-09-23T05:56:04Z</time>
      </trkpt>
      <trkpt lat="45.74815" lon="4.83329">
        <ele>185</ele>
        <time>2016-09-23T05:56:08Z</time>
      </trkpt>
      <trkpt lat="45.74846" lon="4.83348">
        <ele>186</ele>
        <time>2016-09-23T05:56:17Z</time>
      </trkpt>
      <trkpt lat="45.74861" lon="4.83358">
        <ele>190</ele>
        <time>2016-09-23T05:56:22Z</time>
      </trkpt>
      <trkpt lat="45.7487" lon="4.83365">
        <ele>191</ele>
        <time>2016-09-23T05:56:26Z</time>
      </trkpt>
      <trkpt lat="45.74877" lon="4.83371">
        <ele>190</ele>
        <time>2016-09-23T05:56:30Z</time>
      </trkpt>
      <trkpt lat="45.74893" lon="4.83384">
        <ele>191</ele>
        <time>2016-09-23T05:56:37Z</time>
      </trkpt>
      <trkpt lat="45.74905" lon="4.83391">
        <ele>186</ele>
        <time>2016-09-23T05:56:42Z</time>
      </trkpt>
      <trkpt lat="45.7491" lon="4.83402">
        <ele>184</ele>
        <time>2016-09-23T05:56:48Z</time>
      </trkpt>
      <trkpt lat="45.74925" lon="4.83413">
        <ele>182</ele>
        <time>2016-09-23T05:56:56Z</time>
      </trkpt>
      <trkpt lat="45.74937" lon="4.83425">
        <ele>182</ele>
        <time>2016-09-23T05:57:01Z</time>
      </trkpt>
      <trkpt lat="45.74949" lon="4.83451">
        <ele>184</ele>
        <time>2016-09-23T05:57:08Z</time>
      </trkpt>
      <trkpt lat="45.74954" lon="4.83469">
        <ele>180</ele>
        <time>2016-09-23T05:57:14Z</time>
      </trkpt>
      <trkpt lat="45.74959" lon="4.83472">
        <ele>181</ele>
        <time>2016-09-23T05:57:18Z</time>
      </trkpt>
      <trkpt lat="45.74977" lon="4.83489">
        <ele>182</ele>
        <time>2016-09-23T05:57:26Z</time>
      </trkpt>
      <trkpt lat="45.74985" lon="4.83497">
        <ele>184</ele>
        <time>2016-09-23T05:57:30Z</time>
      </trkpt>
      <trkpt lat="45.75009" lon="4.83516">
        <ele>188</ele>
        <time>2016-09-23T05:57:39Z</time>
      </trkpt>
      <trkpt lat="45.75016" lon="4.83521">
        <ele>192</ele>
        <time>2016-09-23T05:57:42Z</time>
      </trkpt>
      <trkpt lat="45.75029" lon="4.8353">
        <ele>195</ele>
        <time>2016-09-23T05:57:48Z</time>
      </trkpt>
      <trkpt lat="45.75045" lon="4.8354">
        <ele>196</ele>
        <time>2016-09-23T05:57:54Z</time>
      </trkpt>
      <trkpt lat="45.75056" lon="4.8355">
        <ele>193</ele>
        <time>2016-09-23T05:58:00Z</time>
      </trkpt>
      <trkpt lat="45.75076" lon="4.83568">
        <ele>192</ele>
        <time>2016-09-23T05:58:09Z</time>
      </trkpt>
      <trkpt lat="45.75088" lon="4.83578">
        <ele>194</ele>
        <time>2016-09-23T05:58:13Z</time>
      </trkpt>
      <trkpt lat="45.75099" lon="4.83589">
        <ele>196</ele>
        <time>2016-09-23T05:58:18Z</time>
      </trkpt>
      <trkpt lat="45.75111" lon="4.83603">
        <ele>196</ele>
        <time>2016-09-23T05:58:25Z</time>
      </trkpt>
      <trkpt lat="45.75129" lon="4.83615">
        <ele>194</ele>
        <time>2016-09-23T05:58:33Z</time>
      </trkpt>
      <trkpt lat="45.75135" lon="4.8362">
        <ele>195</ele>
        <time>2016-09-23T05:58:36Z</time>
      </trkpt>
      <trkpt lat="45.75148" lon="4.83642">
        <ele>197</ele>
        <time>2016-09-23T05:58:45Z</time>
      </trkpt>
      <trkpt lat="45.75152" lon="4.83645">
        <ele>195</ele>
        <time>2016-09-23T05:58:48Z</time>
      </trkpt>
      <trkpt lat="45.75158" lon="4.83658">
        <ele>189</ele>
        <time>2016-09-23T05:58:54Z</time>
      </trkpt>
      <trkpt lat="45.75173" lon="4.83663">
        <ele>190</ele>
        <time>2016-09-23T05:59:00Z</time>
      </trkpt>
      <trkpt lat="45.75199" lon="4.83676">
        <ele>188</ele>
        <time>2016-09-23T05:59:10Z</time>
      </trkpt>
      <trkpt lat="45.75214" lon="4.83676">
        <ele>186</ele>
        <time>2016-09-23T05:59:15Z</time>
      </trkpt>
      <trkpt lat="45.75221" lon="4.83664">
        <ele>185</ele>
        <time>2016-09-23T05:59:19Z</time>
      </trkpt>
      <trkpt lat="45.75227" lon="4.83651">
        <ele>183</ele>
        <time>2016-09-23T05:59:24Z</time>
      </trkpt>
      <trkpt lat="45.7523" lon="4.8364">
        <ele>184</ele>
        <time>2016-09-23T05:59:30Z</time>
      </trkpt>
      <trkpt lat="45.75238" lon="4.83617">
        <ele>184</ele>
        <time>2016-09-23T05:59:36Z</time>
      </trkpt>
      <trkpt lat="45.75247" lon="4.83597">
        <ele>181</ele>
        <time>2016-09-23T05:59:43Z</time>
      </trkpt>
      <trkpt lat="45.75255" lon="4.8358">
        <ele>179</ele>
        <time>2016-09-23T05:59:48Z</time>
      </trkpt>
      <trkpt lat="45.75262" lon="4.83554">
        <ele>183</ele>
        <time>2016-09-23T05:59:55Z</time>
      </trkpt>
      <trkpt lat="45.75267" lon="4.83541">
        <ele>178</ele>
        <time>2016-09-23T06:00:00Z</time>
      </trkpt>
      <trkpt lat="45.75277" lon="4.83509">
        <ele>184</ele>
        <time>2016-09-23T06:00:10Z</time>
      </trkpt>
      <trkpt lat="45.7528" lon="4.83503">
        <ele>183</ele>
        <time>2016-09-23T06:00:12Z</time>
      </trkpt>
      <trkpt lat="45.75287" lon="4.83484">
        <ele>181</ele>
        <time>2016-09-23T06:00:18Z</time>
      </trkpt>
      <trkpt lat="45.75296" lon="4.8346">
        <ele>181</ele>
        <time>2016-09-23T06:00:27Z</time>
      </trkpt>
      <trkpt lat="45.75302" lon="4.83446">
        <ele>179</ele>
        <time>2016-09-23T06:00:31Z</time>
      </trkpt>
      <trkpt lat="45.75313" lon="4.83406">
        <ele>180</ele>
        <time>2016-09-23T06:00:41Z</time>
      </trkpt>
      <trkpt lat="45.75313" lon="4.83402">
        <ele>181</ele>
        <time>2016-09-23T06:00:42Z</time>
      </trkpt>
      <trkpt lat="45.75328" lon="4.83362">
        <ele>177</ele>
        <time>2016-09-23T06:00:52Z</time>
      </trkpt>
      <trkpt lat="45.75335" lon="4.83352">
        <ele>176</ele>
        <time>2016-09-23T06:00:56Z</time>
      </trkpt>
      <trkpt lat="45.75342" lon="4.83342">
        <ele>176</ele>
        <time>2016-09-23T06:01:00Z</time>
      </trkpt>
      <trkpt lat="45.75352" lon="4.8332">
        <ele>175</ele>
        <time>2016-09-23T06:01:07Z</time>
      </trkpt>
      <trkpt lat="45.75365" lon="4.83297">
        <ele>177</ele>
        <time>2016-09-23T06:01:14Z</time>
      </trkpt>
      <trkpt lat="45.75376" lon="4.83286">
        <ele>177</ele>
        <time>2016-09-23T06:01:19Z</time>
      </trkpt>
      <trkpt lat="45.75398" lon="4.83276">
        <ele>176</ele>
        <time>2016-09-23T06:01:25Z</time>
      </trkpt>
      <trkpt lat="45.75418" lon="4.83214">
        <ele>181</ele>
        <time>2016-09-23T06:01:43Z</time>
      </trkpt>
      <trkpt lat="45.7542" lon="4.83202">
        <ele>180</ele>
        <time>2016-09-23T06:01:46Z</time>
      </trkpt>
      <trkpt lat="45.75443" lon="4.83166">
        <ele>191</ele>
        <time>2016-09-23T06:01:55Z</time>
      </trkpt>
      <trkpt lat="45.75444" lon="4.83158">
        <ele>193</ele>
        <time>2016-09-23T06:01:57Z</time>
      </trkpt>
      <trkpt lat="45.75449" lon="4.83022">
        <ele>189</ele>
        <time>2016-09-23T06:02:57Z</time>
      </trkpt>
      <trkpt lat="45.754" lon="4.83005">
        <ele>184</ele>
        <time>2016-09-23T06:03:12Z</time>
      </trkpt>
      <trkpt lat="45.75385" lon="4.82972">
        <ele>189</ele>
        <time>2016-09-23T06:03:21Z</time>
      </trkpt>
      <trkpt lat="45.75386" lon="4.82966">
        <ele>192</ele>
        <time>2016-09-23T06:03:22Z</time>
      </trkpt>
      <trkpt lat="45.75411" lon="4.8293">
        <ele>200</ele>
        <time>2016-09-23T06:03:31Z</time>
      </trkpt>
      <trkpt lat="45.75412" lon="4.82904">
        <ele>200</ele>
        <time>2016-09-23T06:03:37Z</time>
      </trkpt>
    </trkseg>
  </trk>
</gpx>